createdAt,value
2019-05-06T00:00:34.201Z,4.37
2019-05-06T00:01:09.315Z,5.25
2019-05-06T00:01:44.229Z,4.60
2019-05-06T00:02:18.317Z,4.45
2019-05-06T00:02:54.459Z,4.33
2019-05-06T00:03:30.447Z,4.47
2019-05-06T00:04:05.069Z,4.17
2019-05-06T00:04:39.578Z,5.47
2019-05-06T00:05:14.384Z,4.85
2019-05-06T00:05:48.728Z,4.75
2019-05-06T00:06:23.654Z,4.45
2019-05-06T00:06:58.422Z,4.15
2019-05-06T00:07:33.969Z,5.20
2019-05-06T00:08:08.162Z,4.10
2019-05-06T00:08:44.000Z,3.60
2019-05-06T00:09:19.162Z,5.53
2019-05-06T00:09:53.958Z,5.20
2019-05-06T00:10:30.677Z,5.50
2019-05-06T00:11:05.011Z,4.95
2019-05-06T00:11:39.517Z,3.70
2019-05-06T00:12:17.411Z,5.22
2019-05-06T00:13:48.251Z,4.47
2019-05-06T00:14:23.749Z,4.50
2019-05-06T00:14:58.686Z,4.85
2019-05-06T00:15:34.308Z,4.45
2019-05-06T00:16:09.175Z,4.50
2019-05-06T00:16:44.037Z,5.20
2019-05-06T00:17:18.195Z,5.50
2019-05-06T00:17:53.895Z,4.75
2019-05-06T00:18:28.925Z,4.47
2019-05-06T00:19:04.906Z,4.53
2019-05-06T00:19:40.630Z,4.53
2019-05-06T00:20:17.657Z,5.12
2019-05-06T00:20:54.803Z,4.53
2019-05-06T00:21:27.749Z,4.40
2019-05-06T00:22:02.136Z,5.40
2019-05-06T00:22:36.778Z,4.55
2019-05-06T00:23:24.926Z,4.62
2019-05-06T00:24:06.375Z,5.40
2019-05-06T00:24:47.578Z,4.70
2019-05-06T00:25:44.175Z,4.50
2019-05-06T00:26:57.665Z,4.60
2019-05-06T00:27:37.920Z,4.70
2019-05-06T00:28:24.474Z,4.00
2019-05-06T00:29:01.585Z,4.20
2019-05-06T00:29:36.274Z,5.40
2019-05-06T00:30:10.350Z,4.30
2019-05-06T00:30:45.663Z,4.70
2019-05-06T00:31:21.122Z,4.70
2019-05-06T00:31:55.194Z,5.03
2019-05-06T00:32:29.352Z,4.40
2019-05-06T00:33:04.382Z,4.58
2019-05-06T00:33:38.423Z,5.70
2019-05-06T00:34:13.711Z,4.92
2019-05-06T00:34:47.797Z,4.60
2019-05-06T00:35:23.462Z,5.75
2019-05-06T00:36:00.355Z,5.03
2019-05-06T00:36:34.506Z,4.95
2019-05-06T00:37:09.083Z,5.55
2019-05-06T00:37:44.220Z,5.67
2019-05-06T00:38:18.681Z,4.85
2019-05-06T00:38:55.415Z,4.62
2019-05-06T00:39:49.033Z,4.53
2019-05-06T00:40:27.358Z,4.37
2019-05-06T00:41:04.029Z,4.75
2019-05-06T00:41:38.538Z,5.67
2019-05-06T00:42:44.546Z,4.95
2019-05-06T00:43:18.487Z,4.30
2019-05-06T00:43:54.525Z,4.80
2019-05-06T00:44:28.938Z,5.17
2019-05-06T00:45:11.188Z,4.80
2019-05-06T00:45:44.875Z,5.03
2019-05-06T00:46:19.796Z,5.12
2019-05-06T00:46:54.600Z,4.80
2019-05-06T00:47:30.082Z,4.70
2019-05-06T00:48:06.253Z,5.25
2019-05-06T00:48:41.131Z,5.28
2019-05-06T00:49:15.667Z,4.85
2019-05-06T00:49:49.985Z,5.35
2019-05-06T00:50:24.386Z,3.90
2019-05-06T00:50:59.479Z,4.97
2019-05-06T00:51:34.075Z,4.92
2019-05-06T00:52:08.821Z,4.50
2019-05-06T00:52:44.733Z,4.60
2019-05-06T00:53:23.409Z,4.75
2019-05-06T00:54:04.007Z,5.65
2019-05-06T00:54:39.333Z,4.90
2019-05-06T00:55:14.220Z,5.95
2019-05-06T00:55:48.686Z,5.10
2019-05-06T00:56:24.388Z,5.20
2019-05-06T00:56:58.320Z,4.25
2019-05-06T00:57:44.245Z,5.30
2019-05-06T00:58:18.482Z,5.05
2019-05-06T00:58:54.309Z,5.35
2019-05-06T00:59:28.379Z,5.50
2019-05-06T01:00:04.178Z,4.53
2019-05-06T01:00:38.688Z,5.65
2019-05-06T01:01:25.497Z,5.35
2019-05-06T01:01:47.944Z,4.70
2019-05-06T01:02:23.367Z,5.15
2019-05-06T01:02:56.707Z,5.20
2019-05-06T01:03:30.283Z,4.90
2019-05-06T01:04:05.120Z,4.33
2019-05-06T01:04:38.871Z,4.97
2019-05-06T01:05:13.861Z,4.50
2019-05-06T01:05:48.822Z,5.15
2019-05-06T01:06:24.562Z,5.35
2019-05-06T01:06:58.485Z,4.80
2019-05-06T01:07:34.438Z,4.58
2019-05-06T01:08:08.088Z,5.05
2019-05-06T01:08:43.881Z,4.55
2019-05-06T01:09:19.245Z,4.28
2019-05-06T01:09:54.188Z,5.15
2019-05-06T01:10:28.294Z,4.95
2019-05-06T01:11:03.917Z,5.37
2019-05-06T01:11:36.998Z,4.75
2019-05-06T01:12:11.346Z,5.50
2019-05-06T01:12:54.354Z,5.22
2019-05-06T01:13:35.291Z,4.90
2019-05-06T01:14:14.896Z,4.75
2019-05-06T01:14:50.547Z,5.33
2019-05-06T01:15:25.929Z,5.28
2019-05-06T01:16:01.151Z,5.47
2019-05-06T01:16:36.221Z,5.90
2019-05-06T01:17:10.899Z,4.10
2019-05-06T01:17:45.772Z,5.00
2019-05-06T01:18:19.850Z,6.35
2019-05-06T01:18:54.906Z,4.70
2019-05-06T01:19:30.206Z,4.95
2019-05-06T01:20:04.526Z,4.75
2019-05-06T01:20:39.679Z,5.37
2019-05-06T01:21:14.592Z,5.10
2019-05-06T01:21:49.056Z,4.80
2019-05-06T01:22:24.656Z,5.58
2019-05-06T01:22:59.497Z,5.35
2019-05-06T01:23:34.260Z,5.97
2019-05-06T01:24:08.750Z,4.87
2019-05-06T01:24:43.973Z,5.45
2019-05-06T01:25:18.542Z,5.78
2019-05-06T01:25:54.609Z,5.30
2019-05-06T01:26:28.732Z,5.30
2019-05-06T01:27:04.002Z,5.60
2019-05-06T01:27:38.043Z,4.78
2019-05-06T01:28:13.933Z,5.50
2019-05-06T01:28:49.154Z,5.15
2019-05-06T01:29:24.156Z,5.72
2019-05-06T01:29:58.353Z,6.05
2019-05-06T01:30:33.746Z,5.45
2019-05-06T01:31:08.982Z,5.58
2019-05-06T01:31:45.905Z,4.60
2019-05-06T01:32:20.146Z,4.92
2019-05-06T01:32:54.377Z,5.50
2019-05-06T01:33:28.294Z,5.72
2019-05-06T01:34:04.288Z,5.40
2019-05-06T01:34:57.282Z,5.37
2019-05-06T01:35:31.195Z,4.60
2019-05-06T01:36:05.807Z,5.28
2019-05-06T01:36:39.929Z,6.15
2019-05-06T01:37:14.314Z,5.67
2019-05-06T01:37:49.929Z,5.75
2019-05-06T01:38:33.804Z,5.20
2019-05-06T01:39:34.145Z,4.47
2019-05-06T01:40:31.055Z,4.70
2019-05-06T01:41:24.408Z,4.70
2019-05-06T01:42:08.959Z,5.85
2019-05-06T01:42:48.029Z,5.17
2019-05-06T01:43:27.812Z,4.45
2019-05-06T01:44:01.663Z,5.20
2019-05-06T01:44:36.018Z,5.95
2019-05-06T01:45:10.909Z,5.92
2019-05-06T01:45:44.527Z,6.05
2019-05-06T01:46:18.899Z,4.70
2019-05-06T01:46:54.214Z,4.55
2019-05-06T01:47:29.593Z,5.83
2019-05-06T01:48:04.619Z,4.95
2019-05-06T01:48:48.105Z,4.62
2019-05-06T01:49:24.372Z,4.67
2019-05-06T01:49:59.091Z,5.30
2019-05-06T01:50:34.463Z,5.58
2019-05-06T01:51:07.941Z,4.65
2019-05-06T01:51:43.801Z,5.53
2019-05-06T01:52:18.019Z,5.40
2019-05-06T01:52:51.589Z,6.12
2019-05-06T01:53:27.331Z,4.70
2019-05-06T01:54:03.995Z,5.92
2019-05-06T01:54:38.138Z,6.00
2019-05-06T01:55:14.167Z,4.70
2019-05-06T01:55:48.349Z,5.37
2019-05-06T01:56:24.168Z,4.83
2019-05-06T01:56:58.772Z,5.45
2019-05-06T01:57:33.742Z,5.35
2019-05-06T01:58:08.085Z,4.75
2019-05-06T01:58:43.968Z,6.10
2019-05-06T01:59:18.120Z,5.20
2019-05-06T01:59:54.034Z,5.67
2019-05-06T02:00:28.459Z,6.42
2019-05-06T02:01:04.045Z,5.55
2019-05-06T02:01:53.968Z,5.03
2019-05-06T02:02:16.716Z,5.20
2019-05-06T02:02:50.658Z,4.80
2019-05-06T02:03:25.590Z,4.42
2019-05-06T02:03:59.739Z,5.50
2019-05-06T02:04:35.672Z,5.55
2019-05-06T02:05:10.005Z,6.35
2019-05-06T02:05:44.702Z,4.62
2019-05-06T02:06:18.847Z,5.60
2019-05-06T02:06:54.567Z,5.72
2019-05-06T02:07:28.817Z,6.22
2019-05-06T02:08:03.984Z,5.97
2019-05-06T02:08:39.135Z,5.95
2019-05-06T02:09:17.136Z,5.65
2019-05-06T02:09:53.673Z,4.83
2019-05-06T02:10:27.603Z,5.30
2019-05-06T02:11:03.984Z,4.80
2019-05-06T02:11:40.390Z,5.42
2019-05-06T02:12:14.495Z,5.95
2019-05-06T02:12:49.453Z,4.83
2019-05-06T02:13:23.914Z,5.03
2019-05-06T02:13:58.344Z,5.65
2019-05-06T02:14:34.172Z,5.28
2019-05-06T02:15:09.457Z,5.03
2019-05-06T02:15:44.936Z,5.72
2019-05-06T02:16:19.104Z,4.97
2019-05-06T02:16:54.734Z,6.30
2019-05-06T02:17:28.721Z,5.45
2019-05-06T02:18:04.118Z,5.60
2019-05-06T02:18:39.101Z,5.58
2019-05-06T02:19:14.820Z,6.10
2019-05-06T02:19:49.052Z,5.22
2019-05-06T02:20:24.667Z,5.78
2019-05-06T02:21:05.442Z,5.67
2019-05-06T02:21:57.047Z,5.53
2019-05-06T02:22:48.700Z,5.95
2019-05-06T02:23:25.478Z,4.80
2019-05-06T02:24:00.808Z,4.72
2019-05-06T02:24:39.861Z,5.80
2019-05-06T02:25:18.145Z,4.58
2019-05-06T02:25:54.141Z,5.97
2019-05-06T02:26:28.150Z,5.65
2019-05-06T02:27:01.941Z,5.45
2019-05-06T02:27:35.683Z,5.62
2019-05-06T02:28:09.707Z,5.72
2019-05-06T02:28:46.461Z,6.50
2019-05-06T02:29:21.721Z,5.28
2019-05-06T02:30:01.026Z,6.65
2019-05-06T02:31:05.342Z,5.58
2019-05-06T02:32:15.449Z,6.08
2019-05-06T02:32:45.364Z,5.70
2019-05-06T02:33:44.614Z,5.37
2019-05-06T02:34:36.371Z,5.42
2019-05-06T02:35:26.077Z,5.33
2019-05-06T02:36:02.193Z,6.37
2019-05-06T02:36:45.583Z,5.47
2019-05-06T02:37:28.080Z,6.30
2019-05-06T02:38:04.966Z,4.62
2019-05-06T02:38:46.950Z,5.53
2019-05-06T02:39:14.439Z,4.87
2019-05-06T02:39:49.140Z,5.05
2019-05-06T02:40:25.500Z,5.70
2019-05-06T02:41:03.194Z,6.17
2019-05-06T02:41:36.069Z,5.70
2019-05-06T02:42:09.672Z,6.50
2019-05-06T02:42:43.829Z,5.92
2019-05-06T02:43:17.695Z,6.62
2019-05-06T02:43:54.114Z,6.00
2019-05-06T02:44:28.371Z,6.25
2019-05-06T02:45:03.938Z,5.47
2019-05-06T02:45:38.604Z,5.50
2019-05-06T02:46:13.017Z,6.30
2019-05-06T02:46:53.172Z,4.92
2019-05-06T02:47:37.247Z,5.62
2019-05-06T02:48:15.737Z,5.80
2019-05-06T02:49:18.700Z,6.25
2019-05-06T02:49:56.571Z,5.53
2019-05-06T02:50:33.896Z,5.60
2019-05-06T02:51:13.137Z,6.87
2019-05-06T02:51:46.721Z,6.20
2019-05-06T02:52:22.860Z,5.72
2019-05-06T02:52:56.646Z,5.85
2019-05-06T02:53:33.131Z,5.17
2019-05-06T02:54:06.486Z,5.75
2019-05-06T02:54:42.740Z,6.00
2019-05-06T02:55:16.349Z,5.35
2019-05-06T02:55:53.119Z,5.35
2019-05-06T02:56:26.557Z,6.03
2019-05-06T02:57:03.932Z,6.22
2019-05-06T02:57:36.220Z,6.15
2019-05-06T02:58:10.161Z,6.53
2019-05-06T02:58:43.883Z,5.95
2019-05-06T02:59:17.619Z,6.05
2019-05-06T02:59:54.831Z,6.17
2019-05-06T03:00:26.597Z,6.50
2019-05-06T03:01:03.475Z,6.10
2019-05-06T03:01:36.636Z,5.83
2019-05-06T03:02:13.690Z,5.83
2019-05-06T03:02:48.254Z,5.60
2019-05-06T03:03:23.308Z,6.37
2019-05-06T03:03:57.013Z,6.80
2019-05-06T03:04:33.245Z,6.17
2019-05-06T03:05:06.473Z,6.03
2019-05-06T03:05:43.598Z,7.28
2019-05-06T03:06:15.825Z,6.62
2019-05-06T03:06:49.377Z,6.35
2019-05-06T03:07:23.450Z,6.20
2019-05-06T03:07:58.597Z,7.12
2019-05-06T03:08:32.978Z,6.25
2019-05-06T03:09:07.573Z,6.60
2019-05-06T03:09:44.329Z,6.05
2019-05-06T03:10:16.855Z,6.72
2019-05-06T03:10:53.112Z,6.72
2019-05-06T03:11:25.627Z,6.35
2019-05-06T03:12:03.566Z,6.08
2019-05-06T03:12:36.618Z,6.53
2019-05-06T03:13:10.247Z,6.42
2019-05-06T03:13:44.213Z,6.50
2019-05-06T03:14:18.212Z,6.08
2019-05-06T03:14:53.271Z,5.83
2019-05-06T03:15:27.274Z,6.65
2019-05-06T03:16:05.273Z,6.83
2019-05-06T03:16:36.208Z,5.92
2019-05-06T03:17:10.123Z,6.58
2019-05-06T03:17:43.902Z,6.50
2019-05-06T03:18:17.674Z,6.97
2019-05-06T03:18:53.235Z,6.72
2019-05-06T03:19:27.408Z,6.72
2019-05-06T03:20:04.257Z,5.83
2019-05-06T03:20:43.756Z,6.65
2019-05-06T03:21:38.398Z,6.22
2019-05-06T03:22:34.404Z,6.53
2019-05-06T03:23:09.912Z,6.95
2019-05-06T03:23:46.250Z,6.50
2019-05-06T03:24:33.188Z,6.10
2019-05-06T03:25:24.018Z,6.30
2019-05-06T03:25:59.217Z,6.50
2019-05-06T03:26:33.197Z,6.15
2019-05-06T03:27:07.710Z,6.00
2019-05-06T03:27:46.569Z,6.92
2019-05-06T03:28:19.027Z,6.33
2019-05-06T03:28:53.575Z,7.00
2019-05-06T03:29:28.635Z,6.53
2019-05-06T03:30:58.240Z,5.90
2019-05-06T03:31:36.366Z,6.22
2019-05-06T03:32:08.008Z,6.95
2019-05-06T03:33:21.270Z,6.53
2019-05-06T03:33:40.073Z,5.80
2019-05-06T03:34:13.303Z,5.92
2019-05-06T03:34:52.541Z,6.65
2019-05-06T03:35:25.627Z,6.42
2019-05-06T03:35:56.493Z,6.62
2019-05-06T03:36:25.036Z,6.53
2019-05-06T03:36:56.075Z,7.37
2019-05-06T03:37:27.158Z,7.05
2019-05-06T03:38:03.653Z,6.60
2019-05-06T03:38:37.625Z,6.58
2019-05-06T03:39:13.889Z,5.78
2019-05-06T03:39:46.920Z,6.30
2019-05-06T03:40:23.069Z,6.55
2019-05-06T03:40:55.965Z,6.55
2019-05-06T03:41:29.917Z,6.67
2019-05-06T03:42:04.681Z,7.87
2019-05-06T03:42:38.826Z,6.95
2019-05-06T03:43:13.140Z,6.35
2019-05-06T03:43:48.626Z,5.78
2019-05-06T03:44:23.989Z,6.05
2019-05-06T03:45:04.225Z,6.05
2019-05-06T03:45:46.269Z,6.08
2019-05-06T03:46:48.325Z,6.45
2019-05-06T03:47:45.087Z,6.08
2019-05-06T03:48:28.357Z,6.17
2019-05-06T03:49:04.634Z,6.53
2019-05-06T03:49:42.691Z,6.15
2019-05-06T03:50:16.676Z,7.05
2019-05-06T03:50:55.660Z,6.50
2019-05-06T03:51:25.763Z,6.05
2019-05-06T03:51:59.293Z,6.67
2019-05-06T03:52:34.193Z,6.97
2019-05-06T03:53:08.815Z,6.80
2019-05-06T03:53:43.558Z,7.20
2019-05-06T03:54:18.655Z,6.95
2019-05-06T03:54:53.910Z,7.00
2019-05-06T03:55:28.330Z,5.85
2019-05-06T03:56:03.368Z,6.78
2019-05-06T03:56:38.226Z,7.35
2019-05-06T03:57:13.801Z,7.55
2019-05-06T03:57:47.631Z,6.87
2019-05-06T03:58:23.608Z,6.97
2019-05-06T03:58:58.104Z,6.15
2019-05-06T03:59:34.147Z,5.90
2019-05-06T04:00:17.522Z,6.75
2019-05-06T04:00:53.118Z,7.35
2019-05-06T04:01:26.547Z,6.95
2019-05-06T04:02:00.179Z,6.67
2019-05-06T04:02:33.940Z,6.78
2019-05-06T04:03:07.757Z,7.50
2019-05-06T04:03:47.734Z,7.35
2019-05-06T04:04:16.871Z,6.72
2019-05-06T04:04:53.463Z,5.85
2019-05-06T04:05:25.825Z,6.40
2019-05-06T04:06:00.066Z,6.12
2019-05-06T04:06:33.694Z,6.75
2019-05-06T04:07:07.847Z,6.85
2019-05-06T04:07:45.460Z,7.17
2019-05-06T04:08:20.266Z,5.85
2019-05-06T04:08:53.381Z,6.60
2019-05-06T04:09:27.249Z,5.67
2019-05-06T04:10:03.526Z,7.10
2019-05-06T04:10:37.103Z,6.90
2019-05-06T04:11:13.620Z,6.30
2019-05-06T04:11:47.612Z,7.47
2019-05-06T04:12:23.296Z,6.10
2019-05-06T04:12:57.938Z,6.15
2019-05-06T04:13:33.328Z,6.85
2019-05-06T04:14:07.815Z,6.80
2019-05-06T04:14:43.336Z,7.35
2019-05-06T04:15:17.599Z,6.12
2019-05-06T04:16:13.586Z,6.60
2019-05-06T04:16:53.974Z,6.25
2019-05-06T04:17:45.568Z,6.95
2019-05-06T04:18:23.621Z,7.20
2019-05-06T04:19:03.924Z,7.03
2019-05-06T04:19:43.575Z,7.00
2019-05-06T04:20:37.709Z,6.55
2019-05-06T04:21:24.041Z,6.95
2019-05-06T04:22:03.838Z,7.37
2019-05-06T04:22:47.415Z,6.90
2019-05-06T04:23:33.307Z,7.53
2019-05-06T04:24:28.609Z,6.83
2019-05-06T04:25:27.752Z,6.75
2019-05-06T04:26:13.409Z,5.90
2019-05-06T04:26:54.258Z,5.90
2019-05-06T04:27:36.142Z,6.90
2019-05-06T04:28:15.571Z,7.37
2019-05-06T04:28:49.292Z,8.40
2019-05-06T04:29:24.112Z,7.17
2019-05-06T04:29:58.816Z,7.25
2019-05-06T04:30:33.442Z,7.30
2019-05-06T04:31:07.433Z,7.90
2019-05-06T04:31:43.548Z,6.72
2019-05-06T04:32:18.710Z,6.45
2019-05-06T04:32:53.259Z,6.83
2019-05-06T04:33:27.556Z,7.58
2019-05-06T04:34:12.343Z,6.50
2019-05-06T04:34:37.248Z,7.83
2019-05-06T04:35:13.247Z,7.35
2019-05-06T04:35:46.104Z,7.08
2019-05-06T04:36:20.068Z,7.05
2019-05-06T04:36:53.835Z,5.83
2019-05-06T04:37:27.414Z,6.25
2019-05-06T04:38:03.256Z,6.80
2019-05-06T04:38:37.732Z,7.72
2019-05-06T04:39:13.089Z,6.50
2019-05-06T04:39:46.693Z,7.17
2019-05-06T04:40:23.563Z,6.50
2019-05-06T04:40:56.126Z,6.67
2019-05-06T04:41:33.824Z,7.42
2019-05-06T04:42:09.769Z,6.87
2019-05-06T04:42:44.756Z,6.62
2019-05-06T04:43:19.333Z,7.08
2019-05-06T04:43:53.445Z,7.75
2019-05-06T04:44:27.926Z,7.65
2019-05-06T04:45:04.565Z,7.08
2019-05-06T04:45:39.042Z,6.72
2019-05-06T04:46:13.662Z,6.40
2019-05-06T04:46:47.774Z,6.47
2019-05-06T04:47:24.182Z,6.75
2019-05-06T04:47:57.760Z,6.87
2019-05-06T04:48:33.249Z,6.85
2019-05-06T04:49:26.753Z,7.25
2019-05-06T04:50:04.639Z,6.35
2019-05-06T04:50:37.331Z,7.67
2019-05-06T04:51:13.670Z,6.90
2019-05-06T04:51:47.681Z,8.63
2019-05-06T04:52:22.907Z,7.00
2019-05-06T04:53:04.995Z,7.12
2019-05-06T04:53:40.254Z,7.83
2019-05-06T04:54:15.257Z,7.17
2019-05-06T04:54:54.199Z,7.45
2019-05-06T04:55:33.825Z,7.90
2019-05-06T04:56:08.458Z,7.60
2019-05-06T04:56:44.137Z,7.85
2019-05-06T04:57:18.537Z,7.85
2019-05-06T04:57:53.753Z,7.37
2019-05-06T04:58:27.916Z,8.18
2019-05-06T04:59:05.877Z,8.55
2019-05-06T04:59:37.928Z,8.40
2019-05-06T05:00:13.014Z,7.75
2019-05-06T05:00:47.143Z,8.20
2019-05-06T05:01:23.189Z,7.30
2019-05-06T05:01:59.244Z,7.87
2019-05-06T05:02:35.239Z,7.70
2019-05-06T05:03:10.012Z,8.30
2019-05-06T05:03:45.484Z,7.50
2019-05-06T05:04:28.535Z,6.97
2019-05-06T05:04:56.226Z,8.10
2019-05-06T05:05:32.849Z,7.25
2019-05-06T05:06:07.025Z,8.55
2019-05-06T05:06:43.231Z,7.00
2019-05-06T05:07:17.506Z,7.03
2019-05-06T05:07:52.986Z,6.60
2019-05-06T05:08:37.577Z,7.55
2019-05-06T05:09:16.629Z,7.97
2019-05-06T05:09:48.176Z,7.30
2019-05-06T05:10:25.791Z,6.28
2019-05-06T05:11:08.754Z,6.67
2019-05-06T05:11:56.540Z,6.00
2019-05-06T05:12:42.799Z,6.03
2019-05-06T05:13:35.883Z,6.83
2019-05-06T05:14:26.415Z,6.12
2019-05-06T05:15:25.768Z,5.85
2019-05-06T05:16:12.804Z,6.72
2019-05-06T05:17:17.989Z,6.28
2019-05-06T05:18:10.203Z,5.22
2019-05-06T05:18:47.766Z,6.25
2019-05-06T05:19:23.157Z,7.05
2019-05-06T05:19:56.780Z,6.15
2019-05-06T05:20:37.702Z,7.15
2019-05-06T05:21:12.406Z,6.67
2019-05-06T05:21:46.046Z,7.65
2019-05-06T05:22:21.922Z,7.20
2019-05-06T05:22:55.962Z,7.03
2019-05-06T05:23:31.796Z,7.67
2019-05-06T05:24:05.122Z,5.90
2019-05-06T05:24:38.972Z,6.65
2019-05-06T05:25:13.219Z,8.40
2019-05-06T05:25:46.944Z,6.83
2019-05-06T05:26:22.395Z,6.70
2019-05-06T05:26:56.080Z,6.45
2019-05-06T05:27:30.153Z,5.53
2019-05-06T05:28:05.428Z,6.25
2019-05-06T05:28:39.399Z,6.85
2019-05-06T05:29:13.702Z,6.50
2019-05-06T05:29:48.347Z,7.40
2019-05-06T05:30:22.230Z,5.78
2019-05-06T05:30:55.825Z,6.70
2019-05-06T05:31:29.343Z,5.87
2019-05-06T05:32:03.923Z,6.65
2019-05-06T05:32:38.342Z,6.95
2019-05-06T05:33:12.346Z,7.45
2019-05-06T05:33:46.754Z,6.72
2019-05-06T05:34:22.314Z,6.03
2019-05-06T05:34:56.475Z,7.17
2019-05-06T05:35:31.984Z,7.37
2019-05-06T05:36:05.357Z,6.17
2019-05-06T05:36:39.191Z,6.75
2019-05-06T05:37:12.860Z,6.85
2019-05-06T05:37:46.953Z,7.80
2019-05-06T05:38:22.777Z,5.95
2019-05-06T05:38:56.930Z,7.05
2019-05-06T05:39:33.138Z,6.85
2019-05-06T05:40:07.129Z,6.75
2019-05-06T05:40:42.848Z,6.40
2019-05-06T05:41:16.490Z,5.70
2019-05-06T05:41:52.102Z,6.67
2019-05-06T05:42:33.208Z,6.65
2019-05-06T05:43:19.542Z,6.00
2019-05-06T05:44:18.207Z,6.80
2019-05-06T05:44:52.862Z,5.90
2019-05-06T05:45:27.342Z,6.45
2019-05-06T05:46:02.887Z,6.30
2019-05-06T05:46:38.029Z,6.70
2019-05-06T05:47:12.675Z,7.00
2019-05-06T05:47:47.504Z,6.42
2019-05-06T05:48:42.338Z,7.05
2019-05-06T05:49:33.223Z,6.80
2019-05-06T05:50:26.347Z,6.50
2019-05-06T05:51:03.328Z,6.78
2019-05-06T05:51:38.684Z,6.37
2019-05-06T05:52:15.509Z,6.10
2019-05-06T05:52:51.962Z,5.60
2019-05-06T05:53:27.079Z,5.90
2019-05-06T05:54:02.250Z,5.50
2019-05-06T05:54:37.218Z,6.80
2019-05-06T05:55:12.107Z,6.45
2019-05-06T05:55:47.104Z,6.85
2019-05-06T05:56:23.799Z,7.35
2019-05-06T05:56:56.840Z,6.83
2019-05-06T05:57:32.605Z,7.20
2019-05-06T05:58:08.063Z,6.40
2019-05-06T05:58:42.532Z,6.65
2019-05-06T05:59:18.277Z,7.33
2019-05-06T05:59:54.216Z,6.10
2019-05-06T06:00:32.361Z,7.05
2019-05-06T06:01:07.232Z,6.15
2019-05-06T06:01:43.281Z,6.62
2019-05-06T06:02:18.335Z,7.28
2019-05-06T06:02:53.114Z,7.33
2019-05-06T06:03:27.975Z,6.30
2019-05-06T06:04:03.065Z,7.17
2019-05-06T06:04:51.322Z,5.90
2019-05-06T06:05:13.892Z,6.97
2019-05-06T06:05:47.823Z,6.20
2019-05-06T06:06:22.157Z,6.05
2019-05-06T06:06:57.051Z,6.42
2019-05-06T06:07:32.936Z,7.45
2019-05-06T06:08:08.488Z,6.95
2019-05-06T06:08:43.527Z,5.95
2019-05-06T06:09:17.568Z,6.20
2019-05-06T06:10:02.663Z,6.15
2019-05-06T06:10:43.825Z,5.90
2019-05-06T06:11:24.210Z,6.33
2019-05-06T06:12:02.687Z,6.25
2019-05-06T06:12:36.177Z,5.83
2019-05-06T06:13:12.777Z,7.55
2019-05-06T06:13:49.188Z,5.45
2019-05-06T06:14:56.087Z,5.83
2019-05-06T06:15:58.912Z,5.60
2019-05-06T06:16:52.695Z,5.75
2019-05-06T06:17:57.431Z,5.65
2019-05-06T06:18:48.202Z,5.40
2019-05-06T06:19:33.840Z,5.80
2019-05-06T06:20:26.146Z,6.33
2019-05-06T06:21:27.085Z,5.90
2019-05-06T06:22:00.239Z,6.50
2019-05-06T06:22:35.791Z,5.35
2019-05-06T06:23:27.572Z,5.75
2019-05-06T06:24:06.023Z,5.37
2019-05-06T06:24:44.253Z,5.83
2019-05-06T06:25:18.462Z,5.05
2019-05-06T06:25:54.799Z,5.75
2019-05-06T06:26:32.543Z,6.20
2019-05-06T06:27:12.581Z,5.28
2019-05-06T06:27:52.120Z,5.10
2019-05-06T06:28:33.154Z,5.35
2019-05-06T06:29:08.703Z,5.22
2019-05-06T06:29:45.393Z,5.42
2019-05-06T06:30:27.454Z,5.62
2019-05-06T06:31:23.017Z,5.45
2019-05-06T06:32:19.017Z,5.30
2019-05-06T06:32:54.897Z,5.15
2019-05-06T06:33:32.847Z,5.35
2019-05-06T06:34:15.478Z,5.53
2019-05-06T06:35:14.150Z,5.67
2019-05-06T06:36:05.067Z,5.10
2019-05-06T06:36:49.696Z,5.25
2019-05-06T06:37:42.622Z,5.58
2019-05-06T06:38:40.023Z,5.00
2019-05-06T06:39:18.431Z,4.87
2019-05-06T06:39:54.233Z,4.72
2019-05-06T06:40:30.119Z,6.22
2019-05-06T06:41:04.070Z,5.28
2019-05-06T06:41:38.564Z,4.92
2019-05-06T06:42:13.176Z,5.95
2019-05-06T06:43:12.418Z,5.17
2019-05-06T06:43:48.422Z,6.22
2019-05-06T06:44:25.209Z,5.67
2019-05-06T06:44:59.042Z,5.42
2019-05-06T06:45:33.301Z,6.05
2019-05-06T06:46:09.458Z,5.40
2019-05-06T06:46:43.187Z,5.62
2019-05-06T06:47:18.802Z,6.60
2019-05-06T06:47:52.705Z,5.65
2019-05-06T06:48:29.233Z,5.35
2019-05-06T06:49:04.221Z,6.17
2019-05-06T06:49:37.795Z,6.35
2019-05-06T06:50:12.565Z,5.53
2019-05-06T06:50:47.713Z,4.58
2019-05-06T06:51:23.394Z,5.30
2019-05-06T06:51:58.340Z,5.53
2019-05-06T06:52:33.171Z,5.87
2019-05-06T06:53:07.086Z,5.42
2019-05-06T06:53:42.103Z,4.45
2019-05-06T06:54:16.071Z,4.85
2019-05-06T06:54:49.846Z,4.80
2019-05-06T06:55:23.509Z,5.20
2019-05-06T06:56:16.214Z,5.58
2019-05-06T06:57:06.151Z,5.22
2019-05-06T06:57:42.466Z,4.67
2019-05-06T06:58:32.173Z,5.00
2019-05-06T06:59:22.186Z,4.55
2019-05-06T07:00:03.888Z,4.50
2019-05-06T07:01:12.356Z,4.47
2019-05-06T07:01:57.417Z,4.90
2019-05-06T07:02:39.830Z,4.10
2019-05-06T07:03:17.417Z,4.58
2019-05-06T07:04:13.517Z,4.87
2019-05-06T07:04:57.214Z,4.45
2019-05-06T07:05:47.500Z,4.33
2019-05-06T07:06:27.434Z,3.92
2019-05-06T07:07:03.012Z,4.12
2019-05-06T07:07:43.424Z,4.35
2019-05-06T07:08:12.750Z,3.85
2019-05-06T07:08:46.542Z,5.17
2019-05-06T07:09:20.210Z,4.53
2019-05-06T07:09:53.745Z,5.03
2019-05-06T07:10:45.998Z,4.45
2019-05-06T07:11:19.982Z,4.40
2019-05-06T07:11:53.614Z,4.33
2019-05-06T07:12:27.504Z,3.67
2019-05-06T07:13:02.885Z,4.08
2019-05-06T07:13:38.163Z,4.40
2019-05-06T07:14:13.748Z,4.25
2019-05-06T07:14:49.108Z,4.10
2019-05-06T07:15:22.636Z,3.70
2019-05-06T07:15:56.770Z,3.75
2019-05-06T07:16:32.645Z,4.28
2019-05-06T07:17:05.576Z,3.62
2019-05-06T07:17:41.877Z,4.92
2019-05-06T07:18:15.652Z,4.55
2019-05-06T07:18:49.376Z,4.35
2019-05-06T07:19:29.507Z,4.33
2019-05-06T07:20:06.781Z,3.40
2019-05-06T07:20:54.174Z,3.72
2019-05-06T07:21:38.241Z,4.33
2019-05-06T07:22:12.842Z,3.85
2019-05-06T07:22:46.544Z,4.15
2019-05-06T07:23:23.403Z,4.92
2019-05-06T07:23:56.890Z,4.45
2019-05-06T07:24:32.481Z,4.12
2019-05-06T07:25:07.235Z,4.47
2019-05-06T07:25:42.896Z,3.80
2019-05-06T07:26:17.749Z,4.25
2019-05-06T07:27:00.184Z,4.62
2019-05-06T07:27:33.748Z,4.22
2019-05-06T07:28:07.405Z,4.60
2019-05-06T07:28:46.857Z,4.53
2019-05-06T07:29:25.786Z,4.42
2019-05-06T07:29:56.002Z,5.12
2019-05-06T07:30:33.278Z,4.97
2019-05-06T07:31:27.582Z,4.50
2019-05-06T07:32:02.709Z,3.83
2019-05-06T07:32:36.912Z,4.70
2019-05-06T07:33:13.128Z,4.00
2019-05-06T07:33:46.055Z,3.77
2019-05-06T07:34:19.722Z,3.98
2019-05-06T07:34:53.400Z,4.20
2019-05-06T07:35:38.523Z,4.37
2019-05-06T07:36:02.752Z,3.83
2019-05-06T07:36:36.300Z,4.25
2019-05-06T07:37:09.823Z,4.12
2019-05-06T07:37:43.334Z,3.70
2019-05-06T07:38:17.035Z,4.20
2019-05-06T07:38:52.810Z,4.00
2019-05-06T07:39:26.640Z,4.22
2019-05-06T07:40:02.876Z,3.55
2019-05-06T07:40:36.003Z,3.65
2019-05-06T07:41:15.241Z,4.00
2019-05-06T07:41:54.058Z,4.00
2019-05-06T07:42:42.958Z,3.83
2019-05-06T07:43:34.873Z,3.90
2019-05-06T07:44:22.414Z,3.58
2019-05-06T07:45:06.525Z,4.25
2019-05-06T07:45:45.282Z,3.90
2019-05-06T07:46:33.868Z,3.90
2019-05-06T07:47:26.600Z,3.25
2019-05-06T07:48:06.122Z,3.70
2019-05-06T07:48:39.710Z,4.45
2019-05-06T07:49:13.537Z,3.20
2019-05-06T07:49:47.786Z,3.37
2019-05-06T07:50:22.388Z,3.62
2019-05-06T07:50:56.098Z,4.33
2019-05-06T07:51:29.590Z,3.85
2019-05-06T07:52:03.226Z,3.55
2019-05-06T07:52:36.716Z,3.77
2019-05-06T07:53:10.229Z,4.00
2019-05-06T07:53:43.883Z,3.87
2019-05-06T07:54:17.419Z,3.80
2019-05-06T07:54:53.331Z,4.03
2019-05-06T07:55:26.997Z,4.40
2019-05-06T07:56:03.488Z,3.60
2019-05-06T07:56:35.948Z,3.80
2019-05-06T07:57:09.591Z,3.50
2019-05-06T07:57:43.071Z,3.35
2019-05-06T07:58:16.635Z,3.62
2019-05-06T07:58:52.917Z,3.60
2019-05-06T07:59:26.728Z,4.67
2019-05-06T08:00:03.016Z,3.55
2019-05-06T08:00:36.272Z,4.12
2019-05-06T08:01:09.801Z,3.75
2019-05-06T08:01:44.076Z,3.30
2019-05-06T08:02:18.017Z,6.20
2019-05-06T08:02:52.450Z,3.70
2019-05-06T08:03:26.061Z,3.90
2019-05-06T08:03:59.560Z,3.90
2019-05-06T08:04:33.130Z,4.33
2019-05-06T08:05:07.650Z,4.30
2019-05-06T08:05:52.801Z,4.28
2019-05-06T08:06:16.719Z,4.10
2019-05-06T08:06:52.203Z,3.55
2019-05-06T08:07:25.527Z,4.15
2019-05-06T08:07:59.338Z,4.33
2019-05-06T08:08:33.587Z,4.10
2019-05-06T08:09:08.646Z,3.92
2019-05-06T08:09:42.442Z,4.15
2019-05-06T08:10:15.997Z,3.72
2019-05-06T08:10:49.510Z,4.37
2019-05-06T08:11:26.020Z,3.75
2019-05-06T08:11:58.307Z,4.55
2019-05-06T08:12:32.654Z,3.72
2019-05-06T08:13:06.310Z,4.53
2019-05-06T08:13:39.875Z,3.85
2019-05-06T08:14:13.473Z,3.20
2019-05-06T08:14:46.984Z,4.30
2019-05-06T08:15:22.658Z,4.00
2019-05-06T08:15:56.491Z,4.05
2019-05-06T08:16:31.949Z,4.70
2019-05-06T08:17:06.418Z,4.10
2019-05-06T08:17:42.405Z,4.00
2019-05-06T08:18:16.216Z,3.30
2019-05-06T08:18:49.764Z,3.92